sensor_id;sensor_type;location;lat;lon;timestamp;P1;durP1;ratioP1;P2;durP2;ratioP2
16101;SDS011;56411;52.964;10.540;2022-12-18T00:00:47;54.20;;;27.70;;
16101;SDS011;56411;52.964;10.540;2022-12-18T00:03:14;60.40;;;27.63;;
16101;SDS011;56411;52.964;10.540;2022-12-18T00:05:48;55.10;;;28.37;;
16101;SDS011;56411;52.964;10.540;2022-12-18T00:08:15;56.47;;;28.13;;
16101;SDS011;56411;52.964;10.540;2022-12-18T00:10:42;53.40;;;26.73;;
16101;SDS011;56411;52.964;10.540;2022-12-18T00:13:10;60.03;;;29.20;;
16101;SDS011;56411;52.964;10.540;2022-12-18T00:15:39;62.40;;;29.60;;
16101;SDS011;56411;52.964;10.540;2022-12-18T00:18:07;60.97;;;30.20;;
16101;SDS011;56411;52.964;10.540;2022-12-18T00:20:35;54.33;;;28.90;;
16101;SDS011;56411;52.964;10.540;2022-12-18T00:23:03;56.70;;;28.30;;
16101;SDS011;56411;52.964;10.540;2022-12-18T00:25:32;56.53;;;28.07;;
16101;SDS011;56411;52.964;10.540;2022-12-18T00:28:00;58.13;;;28.00;;
16101;SDS011;56411;52.964;10.540;2022-12-18T00:30:27;56.27;;;28.93;;
16101;SDS011;56411;52.964;10.540;2022-12-18T00:32:56;56.87;;;27.77;;
16101;SDS011;56411;52.964;10.540;2022-12-18T00:35:23;62.20;;;27.90;;
16101;SDS011;56411;52.964;10.540;2022-12-18T00:37:50;56.37;;;27.63;;
16101;SDS011;56411;52.964;10.540;2022-12-18T00:40:18;53.23;;;27.60;;
16101;SDS011;56411;52.964;10.540;2022-12-18T00:42:45;55.73;;;28.33;;
16101;SDS011;56411;52.964;10.540;2022-12-18T00:45:22;56.53;;;26.60;;
16101;SDS011;56411;52.964;10.540;2022-12-18T00:47:50;57.33;;;27.27;;
16101;SDS011;56411;52.964;10.540;2022-12-18T00:50:19;56.97;;;27.70;;
16101;SDS011;56411;52.964;10.540;2022-12-18T00:52:46;58.23;;;28.67;;
16101;SDS011;56411;52.964;10.540;2022-12-18T00:55:14;57.67;;;27.60;;
16101;SDS011;56411;52.964;10.540;2022-12-18T00:57:41;65.03;;;29.97;;
16101;SDS011;56411;52.964;10.540;2022-12-18T01:00:10;64.10;;;30.03;;
16101;SDS011;56411;52.964;10.540;2022-12-18T01:02:38;55.67;;;27.50;;
16101;SDS011;56411;52.964;10.540;2022-12-18T01:05:06;56.80;;;27.93;;
16101;SDS011;56411;52.964;10.540;2022-12-18T01:07:35;58.00;;;28.70;;
16101;SDS011;56411;52.964;10.540;2022-12-18T01:10:03;58.70;;;28.13;;
16101;SDS011;56411;52.964;10.540;2022-12-18T01:12:31;67.57;;;30.53;;
16101;SDS011;56411;52.964;10.540;2022-12-18T01:14:59;66.83;;;31.00;;
16101;SDS011;56411;52.964;10.540;2022-12-18T01:17:26;60.53;;;30.00;;
16101;SDS011;56411;52.964;10.540;2022-12-18T01:19:53;60.30;;;29.20;;
16101;SDS011;56411;52.964;10.540;2022-12-18T01:22:21;54.97;;;27.40;;
16101;SDS011;56411;52.964;10.540;2022-12-18T01:24:49;62.17;;;29.37;;
16101;SDS011;56411;52.964;10.540;2022-12-18T01:27:16;59.60;;;29.13;;
16101;SDS011;56411;52.964;10.540;2022-12-18T01:29:43;61.93;;;28.63;;
16101;SDS011;56411;52.964;10.540;2022-12-18T01:32:10;56.50;;;28.10;;
16101;SDS011;56411;52.964;10.540;2022-12-18T01:34:37;58.03;;;29.07;;
16101;SDS011;56411;52.964;10.540;2022-12-18T01:37:05;59.67;;;28.27;;
16101;SDS011;56411;52.964;10.540;2022-12-18T01:39:32;57.57;;;27.67;;
16101;SDS011;56411;52.964;10.540;2022-12-18T01:42:01;59.00;;;27.80;;
16101;SDS011;56411;52.964;10.540;2022-12-18T01:44:51;53.63;;;25.87;;
16101;SDS011;56411;52.964;10.540;2022-12-18T01:47:26;55.47;;;25.17;;
16101;SDS011;56411;52.964;10.540;2022-12-18T01:49:57;56.47;;;26.50;;
16101;SDS011;56411;52.964;10.540;2022-12-18T01:52:26;55.87;;;25.57;;
16101;SDS011;56411;52.964;10.540;2022-12-18T01:54:57;54.47;;;24.63;;
16101;SDS011;56411;52.964;10.540;2022-12-18T01:57:27;51.73;;;25.83;;
16101;SDS011;56411;52.964;10.540;2022-12-18T01:59:55;50.93;;;24.90;;
16101;SDS011;56411;52.964;10.540;2022-12-18T02:02:26;51.40;;;23.70;;
16101;SDS011;56411;52.964;10.540;2022-12-18T02:04:54;54.97;;;25.77;;
16101;SDS011;56411;52.964;10.540;2022-12-18T02:07:23;50.93;;;24.97;;
16101;SDS011;56411;52.964;10.540;2022-12-18T02:09:58;51.03;;;24.30;;
16101;SDS011;56411;52.964;10.540;2022-12-18T02:12:33;52.00;;;24.07;;
16101;SDS011;56411;52.964;10.540;2022-12-18T02:15:10;50.70;;;24.87;;
16101;SDS011;56411;52.964;10.540;2022-12-18T02:17:43;53.60;;;24.73;;
16101;SDS011;56411;52.964;10.540;2022-12-18T02:20:17;51.87;;;24.07;;
16101;SDS011;56411;52.964;10.540;2022-12-18T02:22:51;51.67;;;23.80;;
16101;SDS011;56411;52.964;10.540;2022-12-18T02:25:35;54.93;;;25.27;;
16101;SDS011;56411;52.964;10.540;2022-12-18T02:28:38;50.73;;;22.87;;
16101;SDS011;56411;52.964;10.540;2022-12-18T02:31:11;48.97;;;23.63;;
16101;SDS011;56411;52.964;10.540;2022-12-18T02:33:42;52.63;;;23.87;;
16101;SDS011;56411;52.964;10.540;2022-12-18T02:36:11;52.23;;;23.50;;
16101;SDS011;56411;52.964;10.540;2022-12-18T02:38:41;49.17;;;23.33;;
16101;SDS011;56411;52.964;10.540;2022-12-18T02:41:10;53.40;;;23.93;;
16101;SDS011;56411;52.964;10.540;2022-12-18T02:43:39;50.93;;;22.87;;
16101;SDS011;56411;52.964;10.540;2022-12-18T02:46:23;48.63;;;23.20;;
16101;SDS011;56411;52.964;10.540;2022-12-18T02:48:59;51.27;;;22.97;;
16101;SDS011;56411;52.964;10.540;2022-12-18T02:51:33;49.23;;;23.50;;
16101;SDS011;56411;52.964;10.540;2022-12-18T02:54:08;49.37;;;22.33;;
16101;SDS011;56411;52.964;10.540;2022-12-18T02:56:41;48.90;;;22.87;;
16101;SDS011;56411;52.964;10.540;2022-12-18T02:59:17;47.37;;;21.77;;
16101;SDS011;56411;52.964;10.540;2022-12-18T03:01:49;52.20;;;23.23;;
16101;SDS011;56411;52.964;10.540;2022-12-18T03:04:19;46.57;;;22.87;;
16101;SDS011;56411;52.964;10.540;2022-12-18T03:06:53;50.33;;;22.63;;
16101;SDS011;56411;52.964;10.540;2022-12-18T03:09:24;46.67;;;22.37;;
16101;SDS011;56411;52.964;10.540;2022-12-18T03:11:58;51.03;;;24.10;;
16101;SDS011;56411;52.964;10.540;2022-12-18T03:14:55;54.57;;;23.93;;
16101;SDS011;56411;52.964;10.540;2022-12-18T03:17:27;50.07;;;23.83;;
16101;SDS011;56411;52.964;10.540;2022-12-18T03:19:59;56.70;;;25.23;;
16101;SDS011;56411;52.964;10.540;2022-12-18T03:22:32;49.07;;;22.83;;
16101;SDS011;56411;52.964;10.540;2022-12-18T03:25:02;48.60;;;22.40;;
16101;SDS011;56411;52.964;10.540;2022-12-18T03:27:32;47.50;;;21.93;;
16101;SDS011;56411;52.964;10.540;2022-12-18T03:30:07;43.87;;;21.57;;
16101;SDS011;56411;52.964;10.540;2022-12-18T03:32:38;51.17;;;22.23;;
16101;SDS011;56411;52.964;10.540;2022-12-18T03:35:09;48.83;;;21.70;;
16101;SDS011;56411;52.964;10.540;2022-12-18T03:37:39;42.33;;;20.57;;
16101;SDS011;56411;52.964;10.540;2022-12-18T03:40:07;45.60;;;20.63;;
16101;SDS011;56411;52.964;10.540;2022-12-18T03:42:37;41.87;;;19.47;;
16101;SDS011;56411;52.964;10.540;2022-12-18T03:45:13;41.70;;;21.50;;
16101;SDS011;56411;52.964;10.540;2022-12-18T03:47:52;40.20;;;19.13;;
16101;SDS011;56411;52.964;10.540;2022-12-18T03:50:29;36.47;;;18.13;;
16101;SDS011;56411;52.964;10.540;2022-12-18T03:53:04;40.57;;;19.70;;
16101;SDS011;56411;52.964;10.540;2022-12-18T03:55:39;42.83;;;19.47;;
16101;SDS011;56411;52.964;10.540;2022-12-18T03:58:07;42.40;;;19.60;;
16101;SDS011;56411;52.964;10.540;2022-12-18T04:00:37;43.33;;;20.77;;
16101;SDS011;56411;52.964;10.540;2022-12-18T04:03:05;43.27;;;19.37;;
16101;SDS011;56411;52.964;10.540;2022-12-18T04:05:35;38.37;;;18.50;;
16101;SDS011;56411;52.964;10.540;2022-12-18T04:08:03;46.37;;;20.43;;
16101;SDS011;56411;52.964;10.540;2022-12-18T04:10:31;40.83;;;18.93;;
16101;SDS011;56411;52.964;10.540;2022-12-18T04:12:58;45.80;;;20.20;;
16101;SDS011;56411;52.964;10.540;2022-12-18T04:15:25;43.47;;;20.13;;
16101;SDS011;56411;52.964;10.540;2022-12-18T04:17:54;41.93;;;19.70;;
16101;SDS011;56411;52.964;10.540;2022-12-18T04:20:21;41.70;;;19.10;;
16101;SDS011;56411;52.964;10.540;2022-12-18T04:22:48;44.60;;;19.77;;
16101;SDS011;56411;52.964;10.540;2022-12-18T04:25:15;42.07;;;19.57;;
16101;SDS011;56411;52.964;10.540;2022-12-18T04:27:42;41.10;;;19.23;;
16101;SDS011;56411;52.964;10.540;2022-12-18T04:30:10;40.70;;;18.87;;
16101;SDS011;56411;52.964;10.540;2022-12-18T04:32:37;44.03;;;20.67;;
16101;SDS011;56411;52.964;10.540;2022-12-18T04:35:06;45.57;;;21.63;;
16101;SDS011;56411;52.964;10.540;2022-12-18T04:37:35;46.80;;;22.10;;
16101;SDS011;56411;52.964;10.540;2022-12-18T04:40:04;44.67;;;20.83;;
16101;SDS011;56411;52.964;10.540;2022-12-18T04:42:31;46.93;;;21.13;;
16101;SDS011;56411;52.964;10.540;2022-12-18T04:44:59;47.43;;;21.37;;
16101;SDS011;56411;52.964;10.540;2022-12-18T04:47:26;45.93;;;21.03;;
16101;SDS011;56411;52.964;10.540;2022-12-18T04:49:53;42.40;;;19.37;;
16101;SDS011;56411;52.964;10.540;2022-12-18T04:52:21;46.70;;;21.23;;
16101;SDS011;56411;52.964;10.540;2022-12-18T04:54:48;46.83;;;20.00;;
16101;SDS011;56411;52.964;10.540;2022-12-18T04:57:16;44.53;;;20.07;;
16101;SDS011;56411;52.964;10.540;2022-12-18T04:59:44;43.63;;;21.03;;
16101;SDS011;56411;52.964;10.540;2022-12-18T05:02:11;44.07;;;21.33;;
16101;SDS011;56411;52.964;10.540;2022-12-18T05:04:38;47.10;;;22.07;;
16101;SDS011;56411;52.964;10.540;2022-12-18T05:07:05;50.90;;;21.90;;
16101;SDS011;56411;52.964;10.540;2022-12-18T05:09:34;46.60;;;21.37;;
16101;SDS011;56411;52.964;10.540;2022-12-18T05:12:01;44.40;;;20.67;;
16101;SDS011;56411;52.964;10.540;2022-12-18T05:14:28;44.70;;;20.27;;
16101;SDS011;56411;52.964;10.540;2022-12-18T05:16:55;45.57;;;21.03;;
16101;SDS011;56411;52.964;10.540;2022-12-18T05:19:22;45.80;;;21.00;;
16101;SDS011;56411;52.964;10.540;2022-12-18T05:21:49;54.23;;;21.37;;
16101;SDS011;56411;52.964;10.540;2022-12-18T05:24:16;41.43;;;20.30;;
16101;SDS011;56411;52.964;10.540;2022-12-18T05:26:44;44.73;;;21.40;;
16101;SDS011;56411;52.964;10.540;2022-12-18T05:29:11;48.77;;;20.80;;
16101;SDS011;56411;52.964;10.540;2022-12-18T05:31:38;49.83;;;22.13;;
16101;SDS011;56411;52.964;10.540;2022-12-18T05:34:05;46.13;;;21.43;;
16101;SDS011;56411;52.964;10.540;2022-12-18T05:36:33;45.97;;;21.10;;
16101;SDS011;56411;52.964;10.540;2022-12-18T05:39:00;44.07;;;20.87;;
16101;SDS011;56411;52.964;10.540;2022-12-18T05:41:27;46.73;;;20.43;;
16101;SDS011;56411;52.964;10.540;2022-12-18T05:43:56;46.00;;;20.53;;
16101;SDS011;56411;52.964;10.540;2022-12-18T05:46:23;43.60;;;20.40;;
16101;SDS011;56411;52.964;10.540;2022-12-18T05:48:50;45.63;;;20.47;;
16101;SDS011;56411;52.964;10.540;2022-12-18T05:51:18;41.43;;;19.97;;
16101;SDS011;56411;52.964;10.540;2022-12-18T05:53:46;45.90;;;20.47;;
16101;SDS011;56411;52.964;10.540;2022-12-18T05:56:16;43.97;;;19.53;;
16101;SDS011;56411;52.964;10.540;2022-12-18T05:58:44;45.27;;;20.40;;
16101;SDS011;56411;52.964;10.540;2022-12-18T06:01:15;46.20;;;19.67;;
16101;SDS011;56411;52.964;10.540;2022-12-18T06:03:44;47.17;;;20.67;;
16101;SDS011;56411;52.964;10.540;2022-12-18T06:06:13;52.50;;;20.60;;
16101;SDS011;56411;52.964;10.540;2022-12-18T06:08:41;44.70;;;20.03;;
16101;SDS011;56411;52.964;10.540;2022-12-18T06:11:08;45.63;;;20.70;;
16101;SDS011;56411;52.964;10.540;2022-12-18T06:13:35;44.90;;;20.20;;
16101;SDS011;56411;52.964;10.540;2022-12-18T06:16:03;47.30;;;21.00;;
16101;SDS011;56411;52.964;10.540;2022-12-18T06:18:32;44.93;;;20.60;;
16101;SDS011;56411;52.964;10.540;2022-12-18T06:20:59;44.60;;;20.70;;
16101;SDS011;56411;52.964;10.540;2022-12-18T06:23:27;48.27;;;18.80;;
16101;SDS011;56411;52.964;10.540;2022-12-18T06:25:54;41.80;;;19.60;;
16101;SDS011;56411;52.964;10.540;2022-12-18T06:28:22;45.17;;;20.00;;
16101;SDS011;56411;52.964;10.540;2022-12-18T06:30:49;42.20;;;19.53;;
16101;SDS011;56411;52.964;10.540;2022-12-18T06:33:25;40.60;;;19.00;;
16101;SDS011;56411;52.964;10.540;2022-12-18T06:35:58;42.50;;;19.73;;
16101;SDS011;56411;52.964;10.540;2022-12-18T06:38:26;38.37;;;17.93;;
16101;SDS011;56411;52.964;10.540;2022-12-18T06:40:54;41.37;;;19.83;;
16101;SDS011;56411;52.964;10.540;2022-12-18T06:43:21;44.93;;;19.83;;
16101;SDS011;56411;52.964;10.540;2022-12-18T06:45:48;46.17;;;19.27;;
16101;SDS011;56411;52.964;10.540;2022-12-18T06:48:17;44.33;;;20.73;;
16101;SDS011;56411;52.964;10.540;2022-12-18T06:50:45;46.13;;;20.47;;
16101;SDS011;56411;52.964;10.540;2022-12-18T06:53:14;42.37;;;19.87;;
16101;SDS011;56411;52.964;10.540;2022-12-18T06:55:41;39.03;;;18.63;;
16101;SDS011;56411;52.964;10.540;2022-12-18T06:58:08;44.47;;;19.67;;
16101;SDS011;56411;52.964;10.540;2022-12-18T07:00:35;39.43;;;19.07;;
16101;SDS011;56411;52.964;10.540;2022-12-18T07:03:02;42.27;;;19.00;;
16101;SDS011;56411;52.964;10.540;2022-12-18T07:05:29;48.50;;;20.13;;
16101;SDS011;56411;52.964;10.540;2022-12-18T07:07:57;40.37;;;18.93;;
16101;SDS011;56411;52.964;10.540;2022-12-18T07:10:25;39.23;;;17.83;;
16101;SDS011;56411;52.964;10.540;2022-12-18T07:12:52;42.33;;;19.67;;
16101;SDS011;56411;52.964;10.540;2022-12-18T07:15:21;41.27;;;17.87;;
16101;SDS011;56411;52.964;10.540;2022-12-18T07:17:48;45.70;;;19.43;;
16101;SDS011;56411;52.964;10.540;2022-12-18T07:20:15;40.50;;;18.83;;
16101;SDS011;56411;52.964;10.540;2022-12-18T07:22:43;45.70;;;20.93;;
16101;SDS011;56411;52.964;10.540;2022-12-18T07:25:10;42.90;;;19.37;;
16101;SDS011;56411;52.964;10.540;2022-12-18T07:27:39;42.93;;;17.87;;
16101;SDS011;56411;52.964;10.540;2022-12-18T07:30:06;50.27;;;20.90;;
16101;SDS011;56411;52.964;10.540;2022-12-18T07:32:35;48.73;;;19.47;;
16101;SDS011;56411;52.964;10.540;2022-12-18T07:35:02;39.83;;;18.67;;
16101;SDS011;56411;52.964;10.540;2022-12-18T07:37:29;39.67;;;18.63;;
16101;SDS011;56411;52.964;10.540;2022-12-18T07:39:57;40.50;;;18.20;;
16101;SDS011;56411;52.964;10.540;2022-12-18T07:42:24;40.20;;;17.97;;
16101;SDS011;56411;52.964;10.540;2022-12-18T07:44:58;38.93;;;17.97;;
16101;SDS011;56411;52.964;10.540;2022-12-18T07:47:26;40.40;;;18.67;;
16101;SDS011;56411;52.964;10.540;2022-12-18T07:49:54;40.13;;;18.07;;
16101;SDS011;56411;52.964;10.540;2022-12-18T07:52:22;40.77;;;18.97;;
16101;SDS011;56411;52.964;10.540;2022-12-18T07:54:50;47.87;;;18.97;;
16101;SDS011;56411;52.964;10.540;2022-12-18T07:57:17;40.60;;;18.20;;
16101;SDS011;56411;52.964;10.540;2022-12-18T07:59:44;43.50;;;19.40;;
16101;SDS011;56411;52.964;10.540;2022-12-18T08:02:12;37.83;;;17.87;;
16101;SDS011;56411;52.964;10.540;2022-12-18T08:04:39;44.93;;;19.53;;
16101;SDS011;56411;52.964;10.540;2022-12-18T08:07:06;36.20;;;19.93;;
16101;SDS011;56411;52.964;10.540;2022-12-18T08:09:33;42.30;;;18.63;;
16101;SDS011;56411;52.964;10.540;2022-12-18T08:12:01;42.80;;;20.23;;
16101;SDS011;56411;52.964;10.540;2022-12-18T08:14:28;42.00;;;20.13;;
16101;SDS011;56411;52.964;10.540;2022-12-18T08:16:55;46.50;;;20.63;;
16101;SDS011;56411;52.964;10.540;2022-12-18T08:19:24;48.53;;;21.90;;
16101;SDS011;56411;52.964;10.540;2022-12-18T08:21:51;47.63;;;21.77;;
16101;SDS011;56411;52.964;10.540;2022-12-18T08:24:18;42.87;;;19.00;;
16101;SDS011;56411;52.964;10.540;2022-12-18T08:26:46;47.93;;;20.30;;
16101;SDS011;56411;52.964;10.540;2022-12-18T08:29:13;50.77;;;21.27;;
16101;SDS011;56411;52.964;10.540;2022-12-18T08:31:40;44.47;;;20.60;;
16101;SDS011;56411;52.964;10.540;2022-12-18T08:34:07;44.33;;;19.43;;
16101;SDS011;56411;52.964;10.540;2022-12-18T08:36:36;44.63;;;20.77;;
16101;SDS011;56411;52.964;10.540;2022-12-18T08:39:03;43.40;;;20.33;;
16101;SDS011;56411;52.964;10.540;2022-12-18T08:41:30;41.03;;;19.50;;
16101;SDS011;56411;52.964;10.540;2022-12-18T08:43:57;44.30;;;18.90;;
16101;SDS011;56411;52.964;10.540;2022-12-18T08:46:42;40.17;;;19.23;;
16101;SDS011;56411;52.964;10.540;2022-12-18T08:49:10;46.07;;;19.63;;
16101;SDS011;56411;52.964;10.540;2022-12-18T08:51:40;44.73;;;19.33;;
16101;SDS011;56411;52.964;10.540;2022-12-18T08:54:09;45.13;;;19.77;;
16101;SDS011;56411;52.964;10.540;2022-12-18T08:56:39;45.63;;;19.70;;
16101;SDS011;56411;52.964;10.540;2022-12-18T08:59:06;43.80;;;20.47;;
16101;SDS011;56411;52.964;10.540;2022-12-18T09:01:34;49.07;;;20.37;;
16101;SDS011;56411;52.964;10.540;2022-12-18T09:04:01;46.63;;;20.70;;
16101;SDS011;56411;52.964;10.540;2022-12-18T09:06:29;55.13;;;22.53;;
16101;SDS011;56411;52.964;10.540;2022-12-18T09:08:58;45.20;;;21.60;;
16101;SDS011;56411;52.964;10.540;2022-12-18T09:11:26;51.13;;;22.90;;
16101;SDS011;56411;52.964;10.540;2022-12-18T09:13:56;53.47;;;23.83;;
16101;SDS011;56411;52.964;10.540;2022-12-18T09:16:25;55.47;;;23.30;;
16101;SDS011;56411;52.964;10.540;2022-12-18T09:18:53;57.13;;;24.17;;
16101;SDS011;56411;52.964;10.540;2022-12-18T09:21:24;52.83;;;22.27;;
16101;SDS011;56411;52.964;10.540;2022-12-18T09:23:56;51.37;;;22.17;;
16101;SDS011;56411;52.964;10.540;2022-12-18T09:26:33;49.37;;;22.20;;
16101;SDS011;56411;52.964;10.540;2022-12-18T09:29:00;49.87;;;22.00;;
16101;SDS011;56411;52.964;10.540;2022-12-18T09:31:32;49.53;;;22.13;;
16101;SDS011;56411;52.964;10.540;2022-12-18T09:34:22;51.33;;;21.60;;
16101;SDS011;56411;52.964;10.540;2022-12-18T09:36:57;53.07;;;22.23;;
16101;SDS011;56411;52.964;10.540;2022-12-18T09:39:36;56.63;;;23.30;;
16101;SDS011;56411;52.964;10.540;2022-12-18T09:42:09;58.57;;;24.10;;
16101;SDS011;56411;52.964;10.540;2022-12-18T09:44:47;53.57;;;23.93;;
16101;SDS011;56411;52.964;10.540;2022-12-18T09:47:27;57.63;;;24.07;;
16101;SDS011;56411;52.964;10.540;2022-12-18T09:50:04;50.60;;;22.97;;
16101;SDS011;56411;52.964;10.540;2022-12-18T09:52:43;55.77;;;22.43;;
16101;SDS011;56411;52.964;10.540;2022-12-18T09:55:17;51.37;;;23.37;;
16101;SDS011;56411;52.964;10.540;2022-12-18T09:57:53;50.73;;;21.97;;
16101;SDS011;56411;52.964;10.540;2022-12-18T10:00:24;46.80;;;20.50;;
16101;SDS011;56411;52.964;10.540;2022-12-18T10:02:52;50.37;;;21.10;;
16101;SDS011;56411;52.964;10.540;2022-12-18T10:05:28;44.07;;;18.97;;
16101;SDS011;56411;52.964;10.540;2022-12-18T10:08:05;45.67;;;19.77;;
16101;SDS011;56411;52.964;10.540;2022-12-18T10:10:37;43.17;;;19.73;;
16101;SDS011;56411;52.964;10.540;2022-12-18T10:13:14;45.20;;;19.83;;
16101;SDS011;56411;52.964;10.540;2022-12-18T10:15:50;47.10;;;20.43;;
16101;SDS011;56411;52.964;10.540;2022-12-18T10:18:26;42.43;;;20.57;;
16101;SDS011;56411;52.964;10.540;2022-12-18T10:21:05;48.63;;;22.30;;
16101;SDS011;56411;52.964;10.540;2022-12-18T10:23:38;47.53;;;22.27;;
16101;SDS011;56411;52.964;10.540;2022-12-18T10:26:10;44.83;;;20.30;;
16101;SDS011;56411;52.964;10.540;2022-12-18T10:28:40;41.90;;;19.83;;
16101;SDS011;56411;52.964;10.540;2022-12-18T10:31:11;39.87;;;19.70;;
16101;SDS011;56411;52.964;10.540;2022-12-18T10:33:42;43.03;;;19.80;;
16101;SDS011;56411;52.964;10.540;2022-12-18T10:36:10;42.33;;;19.67;;
16101;SDS011;56411;52.964;10.540;2022-12-18T10:38:38;41.40;;;19.63;;
16101;SDS011;56411;52.964;10.540;2022-12-18T10:41:07;43.10;;;20.00;;
16101;SDS011;56411;52.964;10.540;2022-12-18T10:46:42;41.03;;;18.97;;
16101;SDS011;56411;52.964;10.540;2022-12-18T10:49:18;38.63;;;18.90;;
16101;SDS011;56411;52.964;10.540;2022-12-18T10:51:48;41.33;;;19.03;;
16101;SDS011;56411;52.964;10.540;2022-12-18T10:54:16;38.63;;;19.17;;
16101;SDS011;56411;52.964;10.540;2022-12-18T10:56:47;40.30;;;19.00;;
16101;SDS011;56411;52.964;10.540;2022-12-18T10:59:16;40.20;;;19.03;;
16101;SDS011;56411;52.964;10.540;2022-12-18T11:01:46;39.47;;;19.37;;
16101;SDS011;56411;52.964;10.540;2022-12-18T11:04:22;37.37;;;18.23;;
16101;SDS011;56411;52.964;10.540;2022-12-18T11:06:58;37.03;;;19.10;;
16101;SDS011;56411;52.964;10.540;2022-12-18T11:09:27;41.47;;;19.10;;
16101;SDS011;56411;52.964;10.540;2022-12-18T11:11:57;37.00;;;18.00;;
16101;SDS011;56411;52.964;10.540;2022-12-18T11:14:29;39.63;;;17.80;;
16101;SDS011;56411;52.964;10.540;2022-12-18T11:17:17;39.20;;;17.67;;
16101;SDS011;56411;52.964;10.540;2022-12-18T11:19:54;38.00;;;17.50;;
16101;SDS011;56411;52.964;10.540;2022-12-18T11:22:54;39.90;;;17.17;;
16101;SDS011;56411;52.964;10.540;2022-12-18T11:25:24;38.40;;;17.77;;
16101;SDS011;56411;52.964;10.540;2022-12-18T11:28:25;37.23;;;17.40;;
16101;SDS011;56411;52.964;10.540;2022-12-18T11:33:57;35.20;;;17.23;;
16101;SDS011;56411;52.964;10.540;2022-12-18T11:36:30;38.20;;;17.23;;
16101;SDS011;56411;52.964;10.540;2022-12-18T11:39:16;37.77;;;18.00;;
16101;SDS011;56411;52.964;10.540;2022-12-18T11:41:58;37.90;;;17.13;;
16101;SDS011;56411;52.964;10.540;2022-12-18T11:44:41;35.57;;;17.10;;
16101;SDS011;56411;52.964;10.540;2022-12-18T11:47:21;38.10;;;17.80;;
16101;SDS011;56411;52.964;10.540;2022-12-18T11:49:59;38.87;;;18.20;;
16101;SDS011;56411;52.964;10.540;2022-12-18T11:52:40;39.60;;;18.50;;
16101;SDS011;56411;52.964;10.540;2022-12-18T11:55:13;37.93;;;19.00;;
16101;SDS011;56411;52.964;10.540;2022-12-18T11:57:44;35.37;;;17.53;;
16101;SDS011;56411;52.964;10.540;2022-12-18T12:00:23;38.33;;;18.33;;
16101;SDS011;56411;52.964;10.540;2022-12-18T12:03:12;39.93;;;18.00;;
16101;SDS011;56411;52.964;10.540;2022-12-18T12:06:20;42.67;;;18.73;;
16101;SDS011;56411;52.964;10.540;2022-12-18T12:13:11;41.50;;;19.93;;
16101;SDS011;56411;52.964;10.540;2022-12-18T12:16:37;41.47;;;20.03;;
16101;SDS011;56411;52.964;10.540;2022-12-18T12:22:37;41.67;;;20.03;;
16101;SDS011;56411;52.964;10.540;2022-12-18T12:25:37;39.60;;;20.53;;
16101;SDS011;56411;52.964;10.540;2022-12-18T12:28:52;39.17;;;19.73;;
16101;SDS011;56411;52.964;10.540;2022-12-18T12:31:36;45.00;;;20.93;;
16101;SDS011;56411;52.964;10.540;2022-12-18T12:37:51;39.90;;;19.90;;
16101;SDS011;56411;52.964;10.540;2022-12-18T12:40:30;40.07;;;20.07;;
16101;SDS011;56411;52.964;10.540;2022-12-18T12:43:07;37.70;;;19.67;;
16101;SDS011;56411;52.964;10.540;2022-12-18T12:45:55;47.63;;;23.43;;
16101;SDS011;56411;52.964;10.540;2022-12-18T12:48:41;40.53;;;20.53;;
16101;SDS011;56411;52.964;10.540;2022-12-18T12:51:15;45.30;;;21.33;;
16101;SDS011;56411;52.964;10.540;2022-12-18T12:53:48;37.43;;;19.43;;
16101;SDS011;56411;52.964;10.540;2022-12-18T12:56:22;44.83;;;21.63;;
16101;SDS011;56411;52.964;10.540;2022-12-18T12:59:16;39.47;;;20.10;;
16101;SDS011;56411;52.964;10.540;2022-12-18T13:02:10;41.37;;;19.80;;
16101;SDS011;56411;52.964;10.540;2022-12-18T13:04:51;42.47;;;20.07;;
16101;SDS011;56411;52.964;10.540;2022-12-18T13:07:32;40.90;;;20.00;;
16101;SDS011;56411;52.964;10.540;2022-12-18T13:10:25;41.40;;;19.63;;
16101;SDS011;56411;52.964;10.540;2022-12-18T13:12:59;40.57;;;19.80;;
16101;SDS011;56411;52.964;10.540;2022-12-18T13:15:29;41.87;;;19.83;;
16101;SDS011;56411;52.964;10.540;2022-12-18T13:18:16;42.00;;;20.27;;
16101;SDS011;56411;52.964;10.540;2022-12-18T13:20:46;39.93;;;18.90;;
16101;SDS011;56411;52.964;10.540;2022-12-18T13:29:00;42.33;;;19.90;;
16101;SDS011;56411;52.964;10.540;2022-12-18T13:34:35;41.90;;;19.97;;
16101;SDS011;56411;52.964;10.540;2022-12-18T13:46:21;44.40;;;19.53;;
16101;SDS011;56411;52.964;10.540;2022-12-18T13:48:55;43.17;;;20.40;;
16101;SDS011;56411;52.964;10.540;2022-12-18T13:51:28;46.37;;;21.50;;
16101;SDS011;56411;52.964;10.540;2022-12-18T13:54:00;45.97;;;21.50;;
16101;SDS011;56411;52.964;10.540;2022-12-18T13:56:32;42.50;;;20.53;;
16101;SDS011;56411;52.964;10.540;2022-12-18T13:59:13;50.53;;;21.73;;
16101;SDS011;56411;52.964;10.540;2022-12-18T14:01:48;46.37;;;20.90;;
16101;SDS011;56411;52.964;10.540;2022-12-18T14:04:22;49.70;;;21.33;;
16101;SDS011;56411;52.964;10.540;2022-12-18T14:06:52;50.33;;;22.87;;
16101;SDS011;56411;52.964;10.540;2022-12-18T14:09:24;46.23;;;21.10;;
16101;SDS011;56411;52.964;10.540;2022-12-18T14:11:56;51.97;;;22.80;;
16101;SDS011;56411;52.964;10.540;2022-12-18T14:14:43;46.77;;;20.80;;
16101;SDS011;56411;52.964;10.540;2022-12-18T14:17:20;49.80;;;21.90;;
16101;SDS011;56411;52.964;10.540;2022-12-18T14:19:48;48.47;;;20.30;;
16101;SDS011;56411;52.964;10.540;2022-12-18T14:22:18;46.87;;;21.60;;
16101;SDS011;56411;52.964;10.540;2022-12-18T14:24:46;48.17;;;21.07;;
16101;SDS011;56411;52.964;10.540;2022-12-18T14:27:21;47.93;;;21.37;;
16101;SDS011;56411;52.964;10.540;2022-12-18T14:29:53;49.47;;;21.57;;
16101;SDS011;56411;52.964;10.540;2022-12-18T14:32:28;46.53;;;20.97;;
16101;SDS011;56411;52.964;10.540;2022-12-18T14:34:58;44.47;;;20.43;;
16101;SDS011;56411;52.964;10.540;2022-12-18T14:37:53;49.20;;;21.80;;
16101;SDS011;56411;52.964;10.540;2022-12-18T14:40:35;48.80;;;21.93;;
16101;SDS011;56411;52.964;10.540;2022-12-18T14:43:03;46.67;;;20.63;;
16101;SDS011;56411;52.964;10.540;2022-12-18T14:45:36;46.67;;;21.87;;
16101;SDS011;56411;52.964;10.540;2022-12-18T14:48:09;50.47;;;22.03;;
16101;SDS011;56411;52.964;10.540;2022-12-18T14:51:19;46.43;;;21.77;;
16101;SDS011;56411;52.964;10.540;2022-12-18T14:53:57;50.13;;;22.87;;
16101;SDS011;56411;52.964;10.540;2022-12-18T14:56:27;49.10;;;22.53;;
16101;SDS011;56411;52.964;10.540;2022-12-18T14:58:56;50.97;;;22.67;;
16101;SDS011;56411;52.964;10.540;2022-12-18T15:01:28;48.43;;;22.27;;
16101;SDS011;56411;52.964;10.540;2022-12-18T15:03:58;48.70;;;23.10;;
16101;SDS011;56411;52.964;10.540;2022-12-18T15:06:29;47.70;;;21.80;;
16101;SDS011;56411;52.964;10.540;2022-12-18T15:08:59;47.20;;;20.63;;
16101;SDS011;56411;52.964;10.540;2022-12-18T15:11:34;46.07;;;22.03;;